CheckWX is a tool to help pilots better visualize weather data.  It is not intended as a substitute for an official pre-flight weather briefing.

18:38:50 UTC

KSAR METAR
Sparta Community-Hunter Field Airport
Sparta, Illinois, USA
Current

24 mins ago

KSAR 261815Z AUTO 04009KT 010V070 10SM CLR 10/00 A3042 RMK AO2 T00951004
Observed
Mar-26 @ 18:15 UTC
Wind
  • 040° at 9 KTS
Visibility
10 SM
Flight Rules
VFR
Cloud Levels
  • Clear skies
Temperature
10°C / 50°F
Dewpoint
-0°C / 32°F
Humidity
50%
Altimeter
30.42" Hg
Pressure
1030.11 hPa
Previous

44 mins ago

KSAR 261755Z AUTO 05009KT 10SM CLR 10/00 A3042 RMK AO2 T00950001 10095 21002
Observed
Mar-26 @ 17:55 UTC
Wind
  • 050° at 9 KTS
Visibility
10 SM
Flight Rules
VFR
Cloud Levels
  • Clear skies
Temperature
10°C / 50°F
Dewpoint
C / 32°F
Humidity
50%
Altimeter
30.42" Hg
Pressure
1030.11 hPa
Previous

1 hour ago

KSAR 261735Z AUTO 10004KT 10SM CLR 08/M01 A3043 RMK AO2 T00841015
Observed
Mar-26 @ 17:35 UTC
Wind
  • 100° at 4 KTS
Visibility
10 SM
Flight Rules
VFR
Cloud Levels
  • Clear skies
Temperature
C / 46°F
Dewpoint
-2°C / 28°F
Humidity
50%
Altimeter
30.43" Hg
Pressure
1030.51 hPa